Time;durP1;ratioP1;P1;durP2;ratioP2;P2;SDS_P1;SDS_P2;PMS_P1;PMS_P2;Temp;Humidity;BMP_temperature;BMP_pressure;BME280_temperature;BME280_humidity;BME280_pressure;Samples;Min_cycle;Max_cycle;Signal;HPM_P1;HPM_P2
2022/07/08 00:02:15;;;;;;;0.60;0.60;;;15.30;99.90;;;;;;4440509;32;20099;-65
2022/07/08 00:04:41;;;;;;;2.92;0.55;;;15.30;99.90;;;;;;4431832;32;20082;-65
2022/07/08 00:07:06;;;;;;;10.43;1.20;;;15.20;99.90;;;;;;4438259;32;20081;-65
2022/07/08 00:09:32;;;;;;;3.90;0.55;;;15.20;99.90;;;;;;4433876;32;20081;-65
2022/07/08 00:11:57;;;;;;;2.75;0.52;;;15.20;99.90;;;;;;4446241;32;20488;-65
2022/07/08 00:14:23;;;;;;;0.50;0.50;;;15.20;99.90;;;;;;4446889;32;20077;-65
2022/07/08 00:16:49;;;;;;;0.37;0.37;;;15.30;99.90;;;;;;4426170;32;20122;-65
2022/07/08 00:19:16;;;;;;;0.50;0.50;;;15.30;99.90;;;;;;4431706;32;20110;-65
2022/07/08 00:21:44;;;;;;;3.45;1.17;;;15.30;99.90;;;;;;4408082;32;20702;-65
2022/07/08 00:24:11;;;;;;;0.30;0.30;;;15.20;99.90;;;;;;4412212;32;20065;-65
2022/07/08 00:26:37;;;;;;;2.30;1.60;;;15.20;99.90;;;;;;4417220;32;20080;-65
2022/07/08 00:29:03;;;;;;;18.55;0.65;;;15.20;99.90;;;;;;4432325;32;20101;-65
2022/07/08 00:31:29;;;;;;;0.50;0.50;;;15.20;99.90;;;;;;4433036;32;20184;-65
2022/07/08 00:33:54;;;;;;;0.57;0.57;;;15.20;99.90;;;;;;4433639;32;20081;-65
2022/07/08 00:36:20;;;;;;;0.65;0.65;;;15.20;99.90;;;;;;4445003;32;20525;-65
2022/07/08 00:38:46;;;;;;;0.65;0.30;;;15.20;99.90;;;;;;4431549;32;20082;-65
2022/07/08 00:41:12;;;;;;;0.40;0.40;;;15.20;99.90;;;;;;4430102;32;20065;-65
2022/07/08 00:43:39;;;;;;;2.03;0.90;;;15.20;99.90;;;;;;4430995;32;20501;-65
2022/07/08 00:46:06;;;;;;;1.02;0.93;;;15.20;99.90;;;;;;4430330;32;20171;-65
2022/07/08 00:48:31;;;;;;;4.50;0.88;;;15.20;99.90;;;;;;4415981;32;20077;-65
2022/07/08 00:50:59;;;;;;;14.05;1.30;;;15.20;99.90;;;;;;4410530;32;20538;-65
2022/07/08 00:53:26;;;;;;;6.22;0.95;;;15.20;99.90;;;;;;4395110;32;20054;-65
2022/07/08 00:55:52;;;;;;;0.32;0.32;;;15.10;99.90;;;;;;4424004;32;20085;-65
2022/07/08 00:58:18;;;;;;;17.30;1.33;;;15.20;99.90;;;;;;4444934;32;20069;-65
2022/07/08 01:00:43;;;;;;;0.95;0.85;;;15.20;99.90;;;;;;4431194;32;20132;-65
2022/07/08 01:03:10;;;;;;;3.85;1.20;;;15.10;99.90;;;;;;4445893;32;20077;-65
2022/07/08 01:05:35;;;;;;;0.62;0.62;;;15.10;99.90;;;;;;4446434;32;20065;-65
2022/07/08 01:08:01;;;;;;;1.00;0.62;;;15.10;99.90;;;;;;4434077;32;20077;-65
2022/07/08 01:10:29;;;;;;;2.28;0.50;;;15.10;99.90;;;;;;4431004;32;20069;-65
2022/07/08 01:12:55;;;;;;;0.50;0.50;;;15.20;99.90;;;;;;4430693;32;20124;-65
2022/07/08 01:15:22;;;;;;;10.05;2.40;;;15.20;99.90;;;;;;4417731;32;20495;-65
2022/07/08 01:17:48;;;;;;;8.20;1.85;;;15.20;99.90;;;;;;4426943;32;20540;-65
2022/07/08 01:20:15;;;;;;;2.92;0.70;;;15.20;99.90;;;;;;4445882;32;20088;-65
2022/07/08 01:22:41;;;;;;;1.10;1.00;;;15.10;99.90;;;;;;4427128;32;20482;-65
2022/07/08 01:25:07;;;;;;;1.45;0.88;;;15.20;99.90;;;;;;4433054;32;20120;-65
2022/07/08 01:27:33;;;;;;;0.73;0.73;;;15.20;99.90;;;;;;4444645;32;20083;-65
2022/07/08 01:29:58;;;;;;;2.12;1.58;;;15.20;99.90;;;;;;4444824;32;20119;-65
2022/07/08 01:32:34;;;;;;;16.77;0.50;;;15.20;99.90;;;;;;4443879;32;81639;-65
2022/07/08 01:35:00;;;;;;;1.60;1.48;;;15.20;99.90;;;;;;4446436;32;20090;-65
2022/07/08 01:37:25;;;;;;;0.70;0.70;;;15.20;99.90;;;;;;4444825;32;20053;-65
2022/07/08 01:39:51;;;;;;;1.37;0.88;;;15.20;99.90;;;;;;4430363;32;20065;-65
2022/07/08 01:42:16;;;;;;;0.40;0.40;;;15.30;99.90;;;;;;4432129;32;20069;-65
2022/07/08 01:44:42;;;;;;;5.72;1.48;;;15.30;99.90;;;;;;4425691;32;20540;-65
2022/07/08 01:47:08;;;;;;;0.75;0.75;;;15.30;99.90;;;;;;4435672;32;20061;-65
2022/07/08 01:49:33;;;;;;;0.32;0.32;;;15.30;99.90;;;;;;4430728;32;20534;-65
2022/07/08 01:51:59;;;;;;;6.50;0.95;;;15.40;99.90;;;;;;4421538;32;20053;-65
2022/07/08 01:54:25;;;;;;;3.53;2.17;;;15.40;99.90;;;;;;4413088;32;20642;-65
2022/07/08 01:56:50;;;;;;;0.60;0.47;;;15.40;99.90;;;;;;4413800;32;20062;-65
2022/07/08 01:59:16;;;;;;;0.50;0.50;;;15.40;99.90;;;;;;4418220;32;20513;-65
2022/07/08 02:01:41;;;;;;;4.90;1.48;;;15.40;99.90;;;;;;4446452;32;20073;-65
2022/07/08 02:04:07;;;;;;;0.73;0.73;;;15.40;99.90;;;;;;4445967;32;20073;-65
2022/07/08 02:06:33;;;;;;;1.75;0.85;;;15.40;99.90;;;;;;4445705;32;20077;-65
2022/07/08 02:08:58;;;;;;;1.65;1.02;;;15.50;99.90;;;;;;4443794;32;20078;-65
2022/07/08 02:12:24;;;;;;;0.40;0.40;;;15.50;99.90;;;;;;4445715;32;20053;-65
2022/07/08 02:14:09;;;;;;;0.60;0.60;;;15.60;99.90;;;;;;4432508;32;20076;-65
2022/07/08 02:16:34;;;;;;;4.65;1.80;;;15.60;99.90;;;;;;4443209;32;20148;-65
2022/07/08 02:19:00;;;;;;;0.60;0.60;;;15.50;99.90;;;;;;4429513;32;20085;-65
2022/07/08 02:21:25;;;;;;;0.90;0.88;;;15.50;99.90;;;;;;4420579;32;20300;-65
2022/07/08 02:23:51;;;;;;;0.60;0.55;;;15.40;99.90;;;;;;4407665;32;20240;-65
2022/07/08 02:26:16;;;;;;;2.53;1.45;;;15.40;99.90;;;;;;4427103;32;20081;-65
2022/07/08 02:28:42;;;;;;;0.70;0.70;;;15.40;99.90;;;;;;4445116;32;20057;-65
2022/07/08 02:31:07;;;;;;;0.47;0.47;;;15.40;99.90;;;;;;4444535;32;20504;-65
2022/07/08 02:33:33;;;;;;;0.75;0.50;;;15.40;99.90;;;;;;4445881;32;20080;-65
2022/07/08 02:35:58;;;;;;;5.60;1.67;;;15.50;99.90;;;;;;4445413;32;20061;-65
2022/07/08 02:38:25;;;;;;;3.90;1.55;;;15.50;99.90;;;;;;4444694;32;20329;-65
2022/07/08 02:40:50;;;;;;;2.90;1.15;;;15.50;99.90;;;;;;4445131;32;20160;-65
2022/07/08 02:43:16;;;;;;;1.00;1.00;;;15.50;99.90;;;;;;4444706;32;20509;-65
2022/07/08 02:45:41;;;;;;;0.40;0.40;;;15.60;99.90;;;;;;4434639;32;20065;-65
2022/07/08 02:48:07;;;;;;;3.53;1.37;;;15.60;99.90;;;;;;4441051;32;20060;-65
2022/07/08 02:50:33;;;;;;;0.45;0.45;;;15.50;99.90;;;;;;4427452;32;20061;-65
2022/07/08 02:52:58;;;;;;;0.40;0.40;;;15.50;99.90;;;;;;4424066;32;20065;-65
2022/07/08 02:55:24;;;;;;;2.03;1.10;;;15.50;99.90;;;;;;4434728;32;20065;-65
2022/07/08 02:57:49;;;;;;;5.90;1.12;;;15.50;99.90;;;;;;4441676;32;20064;-65
2022/07/08 03:00:14;;;;;;;0.68;0.62;;;15.50;99.90;;;;;;4443716;32;20065;-65
2022/07/08 03:02:40;;;;;;;2.33;1.73;;;15.50;99.90;;;;;;4444766;32;20434;-65
2022/07/08 03:05:06;;;;;;;24.33;1.00;;;15.50;99.90;;;;;;4445558;32;20119;-65
2022/07/08 03:07:31;;;;;;;1.55;1.00;;;15.50;99.90;;;;;;4436705;32;20062;-65
2022/07/08 03:09:57;;;;;;;1.85;0.75;;;15.50;99.90;;;;;;4429379;32;20508;-65
2022/07/08 03:12:22;;;;;;;0.50;0.50;;;15.40;99.90;;;;;;4429746;32;20081;-65
2022/07/08 03:14:48;;;;;;;0.55;0.55;;;15.40;99.90;;;;;;4429286;32;20062;-65
2022/07/08 03:17:13;;;;;;;0.40;0.40;;;15.40;99.90;;;;;;4434462;32;20446;-65
2022/07/08 03:19:39;;;;;;;0.40;0.40;;;15.30;99.90;;;;;;4443394;32;20078;-65
2022/07/08 03:22:05;;;;;;;0.80;0.55;;;15.30;99.90;;;;;;4430118;32;20068;-65
2022/07/08 03:24:30;;;;;;;0.95;0.88;;;15.40;99.90;;;;;;4425434;32;20081;-65
2022/07/08 03:26:56;;;;;;;1.83;0.73;;;15.40;99.90;;;;;;4440495;32;20066;-65
2022/07/08 03:29:22;;;;;;;0.82;0.75;;;15.50;99.90;;;;;;4430937;32;20101;-65
2022/07/08 03:31:47;;;;;;;0.40;0.40;;;15.50;99.90;;;;;;4450138;32;20173;-65
2022/07/08 03:34:13;;;;;;;0.77;0.62;;;15.50;99.90;;;;;;4460903;32;20512;-65
2022/07/08 03:36:38;;;;;;;0.50;0.50;;;15.60;99.90;;;;;;4458390;32;20076;-65
2022/07/08 03:39:04;;;;;;;3.53;0.88;;;15.50;99.90;;;;;;4444504;32;20074;-65
2022/07/08 03:41:29;;;;;;;5.18;1.62;;;15.50;99.90;;;;;;4443087;32;20159;-65
2022/07/08 03:43:55;;;;;;;9.40;0.93;;;15.50;99.90;;;;;;4444777;32;20478;-65
2022/07/08 03:46:21;;;;;;;3.12;1.05;;;15.50;99.90;;;;;;4415989;32;20082;-65
2022/07/08 03:48:47;;;;;;;3.83;1.33;;;15.50;99.90;;;;;;4442679;32;20082;-65
2022/07/08 03:51:14;;;;;;;0.35;0.35;;;15.50;99.90;;;;;;4436696;32;20065;-65
2022/07/08 03:53:39;;;;;;;0.47;0.45;;;15.50;99.90;;;;;;4410225;32;20464;-65
2022/07/08 03:56:05;;;;;;;0.40;0.40;;;15.50;99.90;;;;;;4424358;32;20069;-65
2022/07/08 03:58:31;;;;;;;0.70;0.70;;;15.50;99.90;;;;;;4441283;32;20086;-65
2022/07/08 04:00:57;;;;;;;0.50;0.50;;;15.50;99.90;;;;;;4442918;32;20065;-65
2022/07/08 04:03:22;;;;;;;0.50;0.50;;;15.50;99.90;;;;;;4445173;32;20141;-65
2022/07/08 04:05:48;;;;;;;0.73;0.60;;;15.50;99.90;;;;;;4444547;32;20066;-65
2022/07/08 04:08:13;;;;;;;0.45;0.45;;;15.60;99.90;;;;;;4433933;32;20062;-65
2022/07/08 04:10:39;;;;;;;13.90;2.15;;;15.60;99.90;;;;;;4415959;32;20073;-65
2022/07/08 04:13:04;;;;;;;3.37;1.37;;;15.50;99.90;;;;;;4419277;32;20066;-65
2022/07/08 04:15:30;;;;;;;12.82;0.68;;;15.60;99.90;;;;;;4433764;32;20113;-65
2022/07/08 04:17:55;;;;;;;1.37;1.27;;;15.60;99.90;;;;;;4432205;32;20113;-65
2022/07/08 04:20:21;;;;;;;0.40;0.40;;;15.70;99.90;;;;;;4435871;32;20069;-65
2022/07/08 04:22:47;;;;;;;5.87;1.08;;;15.60;99.90;;;;;;4415881;32;20132;-65
2022/07/08 04:25:13;;;;;;;0.88;0.88;;;15.70;99.90;;;;;;4431602;32;20127;-65
2022/07/08 04:27:38;;;;;;;0.85;0.70;;;15.70;99.90;;;;;;4426043;32;20053;-65
2022/07/08 04:30:04;;;;;;;0.95;0.93;;;15.60;99.90;;;;;;4443780;32;20438;-65
2022/07/08 04:32:30;;;;;;;6.75;1.92;;;15.70;99.90;;;;;;4415556;32;20534;-65
2022/07/08 04:34:59;;;;;;;22.67;0.88;;;15.70;99.90;;;;;;4429244;32;20057;-65
2022/07/08 04:37:26;;;;;;;0.80;0.80;;;15.70;99.90;;;;;;4419082;32;20153;-65
2022/07/08 04:39:52;;;;;;;0.65;0.65;;;15.70;99.90;;;;;;4405467;32;20065;-65
2022/07/08 04:42:18;;;;;;;1.17;1.02;;;15.70;99.90;;;;;;4429841;32;20108;-65
2022/07/08 04:44:43;;;;;;;0.43;0.43;;;15.70;99.90;;;;;;4415411;32;20117;-65
2022/07/08 04:47:09;;;;;;;1.25;1.15;;;15.60;99.90;;;;;;4427208;32;20572;-65
2022/07/08 04:49:36;;;;;;;0.68;0.55;;;15.60;99.90;;;;;;4417397;32;20091;-65
2022/07/08 04:52:01;;;;;;;0.52;0.52;;;15.60;99.90;;;;;;4416593;32;20057;-65
2022/07/08 04:54:27;;;;;;;3.70;0.77;;;15.50;99.90;;;;;;4412826;32;20082;-65
2022/07/08 04:56:52;;;;;;;1.90;1.00;;;15.60;99.90;;;;;;4429315;32;20065;-65
2022/07/08 04:59:18;;;;;;;0.70;0.70;;;15.60;99.90;;;;;;4421380;32;20155;-65
2022/07/08 05:01:43;;;;;;;0.50;0.50;;;15.60;99.90;;;;;;4421136;32;20077;-66
2022/07/08 05:04:09;;;;;;;0.40;0.40;;;15.60;99.90;;;;;;4422056;32;20058;-65
2022/07/08 05:06:34;;;;;;;6.60;1.02;;;15.60;99.90;;;;;;4417086;32;20120;-65
2022/07/08 05:08:59;;;;;;;1.37;0.52;;;15.60;99.90;;;;;;4406870;32;20421;-65
2022/07/08 05:11:25;;;;;;;0.60;0.60;;;15.70;99.90;;;;;;4416902;32;20070;-65
2022/07/08 05:13:50;;;;;;;0.62;0.62;;;15.60;99.90;;;;;;4419131;32;20071;-65
2022/07/08 05:16:16;;;;;;;2.80;0.73;;;15.60;99.90;;;;;;4420228;32;20223;-65
2022/07/08 05:18:41;;;;;;;27.52;1.20;;;15.60;99.90;;;;;;4415788;32;20060;-65
2022/07/08 05:21:07;;;;;;;1.65;0.50;;;15.50;99.90;;;;;;4414914;32;20331;-65
2022/07/08 05:23:33;;;;;;;1.52;1.05;;;15.60;99.90;;;;;;4402833;32;20433;-65
2022/07/08 05:25:58;;;;;;;2.85;0.70;;;15.50;99.90;;;;;;4424077;32;20078;-65
2022/07/08 05:28:24;;;;;;;0.30;0.30;;;15.50;99.90;;;;;;4425709;32;20081;-65
2022/07/08 05:30:49;;;;;;;0.47;0.47;;;15.50;99.90;;;;;;4425509;32;20066;-65
2022/07/08 05:33:15;;;;;;;0.95;0.73;;;15.60;99.90;;;;;;4436761;32;20328;-65
2022/07/08 05:35:40;;;;;;;0.40;0.40;;;15.50;99.90;;;;;;4444025;32;20107;-65
2022/07/08 05:38:06;;;;;;;0.45;0.45;;;15.60;99.90;;;;;;4433876;32;20085;-65
2022/07/08 05:40:32;;;;;;;1.55;1.15;;;15.50;99.90;;;;;;4431231;32;20528;-65
2022/07/08 05:42:57;;;;;;;2.10;0.70;;;15.50;99.90;;;;;;4409920;32;20082;-65
2022/07/08 05:45:23;;;;;;;0.60;0.60;;;15.50;99.90;;;;;;4422234;32;20070;-65
2022/07/08 05:47:48;;;;;;;2.28;1.42;;;15.60;99.90;;;;;;4429672;32;20137;-65
2022/07/08 05:50:14;;;;;;;0.47;0.47;;;15.50;99.90;;;;;;4429908;32;20062;-65
2022/07/08 05:52:40;;;;;;;6.15;1.55;;;15.40;99.90;;;;;;4412136;32;20082;-65
2022/07/08 05:55:05;;;;;;;3.50;1.23;;;15.40;99.90;;;;;;4414678;32;20057;-65
2022/07/08 05:57:31;;;;;;;1.17;0.50;;;15.40;99.90;;;;;;4437172;32;20766;-65
2022/07/08 05:59:56;;;;;;;0.45;0.45;;;15.30;99.90;;;;;;4415243;32;20085;-65
2022/07/08 06:02:22;;;;;;;0.57;0.57;;;15.20;99.90;;;;;;4405654;32;20537;-65
2022/07/08 06:04:47;;;;;;;0.40;0.40;;;15.20;99.90;;;;;;4424179;32;20065;-65
2022/07/08 06:07:13;;;;;;;4.18;2.15;;;15.20;99.90;;;;;;4436080;32;20065;-65
2022/07/08 06:09:38;;;;;;;1.45;1.35;;;15.20;99.90;;;;;;4445502;32;20495;-65
2022/07/08 06:12:05;;;;;;;3.10;1.15;;;15.20;99.90;;;;;;4442077;32;20065;-65
2022/07/08 06:14:31;;;;;;;0.60;0.60;;;15.30;99.90;;;;;;4409144;32;20120;-65
2022/07/08 06:16:56;;;;;;;2.85;1.00;;;15.30;99.90;;;;;;4423026;32;20074;-65
2022/07/08 06:19:22;;;;;;;0.70;0.70;;;15.30;99.90;;;;;;4429330;32;20057;-65
2022/07/08 06:21:48;;;;;;;0.55;0.47;;;15.40;99.90;;;;;;4417088;32;20517;-65
2022/07/08 06:24:14;;;;;;;0.50;0.50;;;15.30;99.90;;;;;;4424968;32;20148;-65
2022/07/08 06:26:39;;;;;;;0.40;0.40;;;15.40;99.90;;;;;;4443321;32;20065;-65
2022/07/08 06:29:05;;;;;;;3.25;1.00;;;15.40;99.90;;;;;;4444331;32;20061;-65
2022/07/08 06:31:30;;;;;;;1.85;0.88;;;15.40;99.90;;;;;;4423865;32;20102;-65
2022/07/08 06:33:56;;;;;;;1.45;0.70;;;15.50;99.90;;;;;;4406763;32;20062;-65
2022/07/08 06:36:24;;;;;;;2.92;1.35;;;15.40;99.90;;;;;;4430004;32;20509;-66
2022/07/08 06:38:50;;;;;;;0.47;0.47;;;15.40;99.90;;;;;;4429312;32;20430;-66
2022/07/08 06:41:15;;;;;;;0.75;0.70;;;15.50;99.90;;;;;;4418173;32;20598;-66
2022/07/08 06:43:41;;;;;;;0.40;0.40;;;15.60;99.90;;;;;;4429759;32;20065;-65
2022/07/08 06:46:07;;;;;;;1.05;0.95;;;15.60;99.90;;;;;;4428993;32;20433;-65
2022/07/08 06:48:32;;;;;;;4.03;0.80;;;15.60;99.90;;;;;;4445188;32;20065;-66
2022/07/08 06:50:58;;;;;;;1.08;0.90;;;15.50;99.90;;;;;;4438942;32;20422;-66
2022/07/08 06:53:25;;;;;;;0.60;0.50;;;15.40;99.90;;;;;;4410132;32;20061;-66
2022/07/08 06:55:50;;;;;;;0.77;0.77;;;15.40;99.90;;;;;;4411801;32;20057;-66
2022/07/08 06:58:16;;;;;;;0.68;0.68;;;15.30;99.90;;;;;;4429731;32;20081;-66
2022/07/08 07:00:42;;;;;;;1.60;0.98;;;15.40;99.90;;;;;;4432029;32;20086;-66
2022/07/08 07:03:08;;;;;;;0.60;0.60;;;15.40;99.90;;;;;;4418440;32;20058;-66
2022/07/08 07:05:33;;;;;;;0.32;0.32;;;15.20;99.90;;;;;;4425817;32;20418;-66
2022/07/08 07:07:58;;;;;;;1.65;0.93;;;15.20;99.90;;;;;;4438591;32;20065;-66
2022/07/08 07:10:24;;;;;;;0.50;0.50;;;15.20;99.90;;;;;;4444336;32;20070;-66
2022/07/08 07:12:49;;;;;;;0.40;0.40;;;15.30;99.90;;;;;;4438196;32;20634;-66
2022/07/08 07:15:15;;;;;;;12.57;0.52;;;15.30;99.90;;;;;;4434117;32;20464;-66
2022/07/08 07:17:42;;;;;;;2.62;0.93;;;15.40;99.90;;;;;;4409458;32;20105;-66
2022/07/08 07:20:09;;;;;;;0.47;0.47;;;15.50;99.90;;;;;;4429981;32;20073;-66
2022/07/08 07:22:34;;;;;;;0.40;0.40;;;15.50;99.90;;;;;;4396549;32;20062;-66
2022/07/08 07:24:59;;;;;;;0.55;0.55;;;15.60;99.90;;;;;;4417058;32;20393;-66
2022/07/08 07:27:25;;;;;;;0.70;0.70;;;15.50;99.90;;;;;;4430026;32;20081;-66
2022/07/08 07:29:51;;;;;;;1.20;0.93;;;15.50;99.90;;;;;;4421086;32;20083;-66
2022/07/08 07:32:16;;;;;;;0.40;0.40;;;15.50;99.90;;;;;;4417410;32;20062;-66
2022/07/08 07:34:42;;;;;;;1.77;0.82;;;15.60;99.90;;;;;;4423478;32;20065;-66
2022/07/08 07:37:07;;;;;;;0.40;0.40;;;15.60;99.90;;;;;;4435266;32;20057;-66
2022/07/08 07:39:33;;;;;;;0.65;0.60;;;15.70;99.90;;;;;;4445672;32;20119;-66
2022/07/08 07:41:59;;;;;;;0.50;0.50;;;15.60;99.90;;;;;;4427108;32;20563;-66
2022/07/08 07:44:24;;;;;;;0.37;0.37;;;15.60;99.90;;;;;;4429658;32;20061;-66
2022/07/08 07:46:50;;;;;;;0.65;0.65;;;15.70;99.90;;;;;;4423371;32;20074;-66
2022/07/08 07:49:15;;;;;;;0.32;0.32;;;16.00;99.90;;;;;;4429700;32;20078;-66
2022/07/08 07:51:41;;;;;;;0.50;0.50;;;16.20;99.90;;;;;;4428843;32;20068;-66
2022/07/08 07:54:06;;;;;;;0.50;0.50;;;16.20;99.90;;;;;;4422453;32;20073;-66
2022/07/08 07:56:33;;;;;;;3.35;0.68;;;16.10;99.90;;;;;;4431172;32;20073;-66
2022/07/08 07:58:58;;;;;;;0.30;0.30;;;16.10;99.90;;;;;;4444221;32;20135;-66
2022/07/08 08:01:24;;;;;;;0.70;0.57;;;16.10;99.90;;;;;;4426195;32;20592;-66
2022/07/08 08:03:49;;;;;;;0.30;0.30;;;16.00;99.90;;;;;;4418594;32;20076;-66
2022/07/08 08:06:15;;;;;;;0.70;0.70;;;16.10;99.90;;;;;;4432580;32;20120;-66
2022/07/08 08:08:40;;;;;;;0.55;0.55;;;16.40;99.90;;;;;;4430431;32;20459;-66
2022/07/08 08:11:06;;;;;;;0.47;0.45;;;16.60;99.90;;;;;;4435296;32;20113;-65
2022/07/08 08:13:31;;;;;;;0.30;0.30;;;16.70;99.90;;;;;;4405429;32;20098;-66
2022/07/08 08:15:57;;;;;;;1.75;0.82;;;16.80;99.90;;;;;;4423450;32;20521;-66
2022/07/08 08:18:23;;;;;;;0.40;0.40;;;17.20;99.90;;;;;;4420846;32;20082;-66
2022/07/08 08:20:49;;;;;;;0.68;0.68;;;17.40;99.90;;;;;;4432831;32;20080;-66
2022/07/08 08:23:14;;;;;;;0.40;0.40;;;17.50;99.90;;;;;;4423663;32;20485;-66
2022/07/08 08:25:42;;;;;;;0.52;0.52;;;17.50;99.90;;;;;;4420613;32;20434;-66
2022/07/08 08:28:07;;;;;;;0.50;0.50;;;17.50;99.90;;;;;;4415800;32;20089;-65
2022/07/08 08:30:33;;;;;;;5.05;1.20;;;17.50;99.90;;;;;;4431752;32;20066;-65
2022/07/08 08:32:58;;;;;;;0.32;0.32;;;17.30;99.90;;;;;;4431947;32;20438;-65
2022/07/08 08:35:24;;;;;;;0.80;0.80;;;17.10;99.90;;;;;;4438074;32;20082;-65
2022/07/08 08:37:50;;;;;;;0.85;0.85;;;17.10;99.90;;;;;;4440321;32;20070;-66
2022/07/08 08:40:18;;;;;;;0.70;0.70;;;17.00;99.90;;;;;;4435401;32;20074;-65
2022/07/08 08:42:44;;;;;;;0.30;0.30;;;17.00;99.90;;;;;;4412632;32;20069;-65
2022/07/08 08:45:09;;;;;;;19.60;0.80;;;17.00;99.90;;;;;;4419599;32;20430;-65
2022/07/08 08:47:36;;;;;;;0.60;0.60;;;17.00;99.90;;;;;;4434514;32;20160;-65
2022/07/08 08:51:05;;;;;;;0.50;0.50;;;16.90;99.90;;;;;;4418989;32;20057;-66
2022/07/08 08:52:51;;;;;;;0.70;0.55;;;16.90;99.90;;;;;;4401069;32;20072;-65
2022/07/08 08:55:26;;;;;;;0.65;0.65;;;16.80;99.90;;;;;;4420813;32;20108;-65
2022/07/08 08:58:07;;;;;;;0.22;0.22;;;16.80;99.90;;;;;;4437993;32;20115;-65
2022/07/08 09:00:33;;;;;;;;;;;16.70;99.90;;;;;;4434745;32;20147;-65
2022/07/08 09:02:59;;;;;;;1.55;1.00;;;16.70;99.90;;;;;;4430209;32;19949;-66
2022/07/08 09:05:25;;;;;;;0.30;0.30;;;16.70;99.90;;;;;;4427929;32;20073;-66
2022/07/08 09:07:51;;;;;;;0.30;0.30;;;16.70;99.90;;;;;;4420138;32;20058;-66
2022/07/08 09:10:18;;;;;;;0.73;0.73;;;16.80;99.90;;;;;;4430071;32;20062;-66
2022/07/08 09:13:03;;;;;;;0.40;0.40;;;16.90;99.90;;;;;;4427373;32;20061;-66
2022/07/08 09:15:32;;;;;;;0.30;0.30;;;16.80;99.90;;;;;;4421582;32;20078;-66
2022/07/08 09:18:00;;;;;;;0.75;0.75;;;16.90;99.90;;;;;;4434314;32;20065;-66
2022/07/08 09:20:25;;;;;;;0.30;0.30;;;17.00;99.90;;;;;;4425353;32;20053;-66
2022/07/08 09:22:51;;;;;;;0.40;0.40;;;17.00;99.90;;;;;;4412655;32;20058;-66
2022/07/08 09:25:16;;;;;;;1.00;0.60;;;17.00;99.90;;;;;;4428861;32;20107;-66
2022/07/08 09:27:41;;;;;;;0.30;0.30;;;16.90;99.90;;;;;;4437062;32;20426;-66
2022/07/08 09:30:08;;;;;;;0.52;0.52;;;16.90;99.90;;;;;;4440308;32;20077;-66
2022/07/08 09:32:33;;;;;;;0.30;0.30;;;16.90;99.90;;;;;;4418914;32;20073;-66
2022/07/08 09:34:59;;;;;;;0.50;0.50;;;16.80;99.90;;;;;;4424324;32;20457;-66
2022/07/08 09:37:24;;;;;;;0.30;0.30;;;16.70;99.90;;;;;;4430619;32;20070;-66
2022/07/08 09:39:50;;;;;;;1.48;1.00;;;16.60;99.90;;;;;;4445717;32;20057;-66
2022/07/08 09:42:16;;;;;;;0.65;0.65;;;16.60;99.90;;;;;;4434803;32;20058;-65
2022/07/08 09:44:42;;;;;;;3.35;1.87;;;16.60;99.90;;;;;;4430262;32;20329;-65
2022/07/08 09:47:10;;;;;;;0.40;0.40;;;16.50;99.90;;;;;;4409773;32;20654;-66
2022/07/08 09:49:41;;;;;;;1.52;0.70;;;16.50;99.90;;;;;;4420551;32;20077;-66
2022/07/08 09:52:06;;;;;;;0.40;0.40;;;16.60;99.90;;;;;;4417655;32;20077;-66
2022/07/08 09:54:32;;;;;;;0.40;0.40;;;16.60;99.90;;;;;;4397337;32;20422;-65
2022/07/08 09:57:04;;;;;;;1.40;1.30;;;16.80;99.90;;;;;;4431225;32;20530;-65
2022/07/08 09:59:31;;;;;;;0.60;0.60;;;16.80;99.90;;;;;;4419954;32;20086;-66
2022/07/08 10:01:58;;;;;;;0.30;0.30;;;16.80;99.90;;;;;;4421234;32;20413;-66
2022/07/08 10:04:24;;;;;;;1.40;0.98;;;16.80;99.90;;;;;;4416972;32;20066;-66
2022/07/08 10:06:52;;;;;;;0.40;0.40;;;16.90;99.90;;;;;;4430182;32;20085;-65
2022/07/08 10:09:19;;;;;;;1.25;0.77;;;16.90;99.90;;;;;;4402921;32;20102;-65
2022/07/08 10:11:46;;;;;;;0.40;0.40;;;17.00;99.90;;;;;;4402261;32;20086;-66
2022/07/08 10:14:12;;;;;;;0.40;0.40;;;17.30;99.90;;;;;;4398177;32;20062;-66
2022/07/08 10:16:39;;;;;;;5.70;0.93;;;17.40;99.90;;;;;;4424148;32;20251;-66
2022/07/08 10:19:08;;;;;;;0.30;0.30;;;17.30;99.90;;;;;;4428963;32;20077;-66
2022/07/08 10:21:36;;;;;;;2.03;1.25;;;17.40;99.90;;;;;;4417952;32;20080;-66
2022/07/08 10:24:03;;;;;;;3.15;0.35;;;17.50;99.90;;;;;;4403055;32;20127;-66
2022/07/08 10:26:40;;;;;;;3.08;1.20;;;17.50;99.90;;;;;;4418546;32;20588;-66
2022/07/08 10:29:07;;;;;;;0.57;0.57;;;17.70;99.90;;;;;;4428504;32;20543;-66
2022/07/08 10:31:46;;;;;;;1.83;0.75;;;17.90;99.90;;;;;;4426147;32;20116;-66
2022/07/08 10:34:13;;;;;;;0.40;0.40;;;17.80;99.90;;;;;;4406900;32;20057;-66
2022/07/08 10:36:46;;;;;;;0.35;0.35;;;18.00;99.90;;;;;;4414817;32;20057;-66
2022/07/08 10:39:13;;;;;;;0.40;0.40;;;18.20;99.90;;;;;;4425844;32;20116;-66
2022/07/08 10:41:39;;;;;;;0.65;0.65;;;18.20;99.90;;;;;;4436709;32;20327;-66
2022/07/08 10:44:05;;;;;;;0.35;0.35;;;18.40;99.90;;;;;;4419385;32;20107;-66
2022/07/08 10:46:31;;;;;;;0.30;0.30;;;18.80;99.90;;;;;;4420866;32;20065;-66
2022/07/08 10:48:59;;;;;;;0.70;0.70;;;19.10;99.90;;;;;;4436488;32;20068;-66
2022/07/08 10:51:27;;;;;;;0.43;0.43;;;19.20;99.90;;;;;;4430247;32;20418;-66
2022/07/08 10:53:55;;;;;;;0.30;0.30;;;19.40;99.90;;;;;;4415460;32;20387;-66
2022/07/08 10:56:45;;;;;;;0.40;0.40;;;19.60;99.90;;;;;;4427349;32;20053;-66
2022/07/08 10:59:20;;;;;;;2.78;0.35;;;19.80;99.90;;;;;;4428732;32;20057;-66
2022/07/08 11:02:14;;;;;;;0.37;0.37;;;20.20;99.90;;;;;;4421089;32;20066;-66
2022/07/08 11:04:42;;;;;;;1.27;0.50;;;20.70;99.90;;;;;;4400524;32;20062;-66
2022/07/08 11:07:18;;;;;;;0.70;0.50;;;21.00;99.90;;;;;;4426056;32;20145;-66
2022/07/08 11:09:46;;;;;;;2.42;0.68;;;21.30;99.90;;;;;;4427838;32;20065;-66
2022/07/08 11:12:14;;;;;;;1.17;0.75;;;21.50;99.90;;;;;;4425199;32;20438;-66
2022/07/08 11:14:45;;;;;;;2.55;0.52;;;21.60;99.90;;;;;;4398783;32;20211;-66
2022/07/08 11:17:16;;;;;;;0.25;0.25;;;21.50;99.90;;;;;;4422932;32;20076;-67
2022/07/08 11:19:42;;;;;;;0.52;0.52;;;22.10;99.90;;;;;;4408042;32;20057;-66
2022/07/08 11:22:09;;;;;;;0.43;0.43;;;22.30;99.30;;;;;;4402336;32;20520;-66
2022/07/08 11:24:39;;;;;;;0.30;0.30;;;22.30;99.30;;;;;;4412842;32;20061;-66
2022/07/08 11:27:05;;;;;;;0.52;0.30;;;22.20;99.10;;;;;;4415605;32;20081;-66
2022/07/08 11:29:32;;;;;;;0.20;0.20;;;21.90;99.40;;;;;;4429789;32;20057;-66
2022/07/08 11:31:58;;;;;;;0.40;0.40;;;21.60;99.60;;;;;;4418327;32;20081;-66
2022/07/08 11:34:25;;;;;;;0.82;0.43;;;21.80;99.90;;;;;;4406855;32;20065;-66
2022/07/08 11:36:55;;;;;;;5.28;1.30;;;22.70;98.50;;;;;;4428344;32;20061;-66
2022/07/08 11:39:21;;;;;;;0.80;0.35;;;23.40;98.50;;;;;;4411106;32;20087;-67
2022/07/08 11:41:46;;;;;;;3.12;0.70;;;24.00;95.80;;;;;;4434823;32;20551;-67
2022/07/08 11:44:12;;;;;;;0.10;0.10;;;24.30;93.90;;;;;;4431011;32;20061;-67
2022/07/08 11:46:47;;;;;;;0.37;0.37;;;24.00;94.50;;;;;;4408728;32;20082;-66
2022/07/08 11:49:13;;;;;;;0.45;0.45;;;23.40;94.20;;;;;;4425161;32;20502;-66
2022/07/08 11:51:44;;;;;;;0.10;0.10;;;22.90;95.30;;;;;;4424480;32;20179;-66
2022/07/08 11:54:09;;;;;;;0.10;0.10;;;22.70;95.90;;;;;;4427838;32;20090;-66
2022/07/08 11:56:35;;;;;;;0.30;0.30;;;22.50;95.70;;;;;;4433381;32;20506;-66
2022/07/08 11:59:00;;;;;;;0.17;0.17;;;22.10;96.50;;;;;;4434886;32;20065;-66
2022/07/08 12:01:26;;;;;;;0.30;0.30;;;21.80;97.10;;;;;;4425254;32;20517;-66
2022/07/08 12:03:52;;;;;;;0.35;0.35;;;21.70;97.70;;;;;;4423151;32;20057;-65
2022/07/08 12:06:26;;;;;;;0.13;0.13;;;21.40;98.30;;;;;;4436325;32;20544;-65
2022/07/08 12:08:53;;;;;;;0.20;0.20;;;21.30;98.50;;;;;;4429147;32;20069;-65
2022/07/08 12:11:21;;;;;;;0.20;0.20;;;21.30;97.80;;;;;;4417541;32;20073;-65
2022/07/08 12:13:49;;;;;;;0.62;0.37;;;21.30;98.10;;;;;;4422331;32;20500;-65
2022/07/08 12:16:31;;;;;;;0.40;0.40;;;21.30;98.60;;;;;;4412587;32;20548;-65
2022/07/08 12:18:57;;;;;;;4.72;0.80;;;21.10;99.20;;;;;;4410714;32;20136;-66
2022/07/08 12:21:23;;;;;;;0.30;0.30;;;21.00;98.00;;;;;;4419704;32;20065;-66
2022/07/08 12:24:04;;;;;;;0.30;0.30;;;20.80;99.20;;;;;;4398933;32;20573;-65
2022/07/08 12:26:30;;;;;;;0.70;0.70;;;20.70;99.10;;;;;;4418707;32;20375;-66
2022/07/08 12:28:56;;;;;;;1.75;0.68;;;20.50;99.40;;;;;;4434793;32;20070;-66
2022/07/08 12:31:40;;;;;;;0.62;0.28;;;20.50;99.50;;;;;;4411721;32;20081;-66
2022/07/08 12:34:07;;;;;;;0.55;0.52;;;20.60;99.90;;;;;;4415651;32;20163;-65
2022/07/08 12:36:33;;;;;;;0.68;0.37;;;20.50;99.90;;;;;;4420383;32;20061;-65
2022/07/08 12:39:10;;;;;;;0.77;0.30;;;20.60;99.90;;;;;;4428510;32;20567;-65
2022/07/08 12:41:36;;;;;;;0.30;0.30;;;20.50;99.90;;;;;;4418816;32;20080;-65
2022/07/08 12:44:40;;;;;;;0.30;0.30;;;20.50;99.90;;;;;;4421567;32;20058;-65